Time;durP1;ratioP1;P1;durP2;ratioP2;P2;SDS_P1;SDS_P2;PMS_P1;PMS_P2;Temp;Humidity;BMP_temperature;BMP_pressure;BME280_temperature;BME280_humidity;BME280_pressure;Samples;Min_cycle;Max_cycle;Signal;HPM_P1;HPM_P2
2023/12/29 00:00:20;;;;;;;5.97;1.30;;;;;;;;;;4994780;28;98706;-80
2023/12/29 00:02:46;;;;;;;9.85;1.85;;;;;;;;;;4997985;28;98162;-81
2023/12/29 00:05:13;;;;;;;9.57;1.63;;;;;;;;;;4994175;28;101070;-81
2023/12/29 00:07:40;;;;;;;11.30;1.83;;;;;;;;;;4996244;28;98989;-81
2023/12/29 00:10:06;;;;;;;6.10;1.27;;;;;;;;;;4995657;28;99476;-82
2023/12/29 00:12:33;;;;;;;7.28;1.60;;;;;;;;;;4995269;28;103000;-81
2023/12/29 00:15:00;;;;;;;6.72;1.40;;;;;;;;;;4996013;28;98500;-81
2023/12/29 00:17:27;;;;;;;8.95;1.52;;;;;;;;;;4997268;28;99136;-81
2023/12/29 00:19:54;;;;;;;6.22;1.50;;;;;;;;;;4978331;28;100387;-81
2023/12/29 00:22:21;;;;;;;5.50;1.48;;;;;;;;;;4997456;28;98107;-81
2023/12/29 00:24:47;;;;;;;5.68;1.30;;;;;;;;;;5014967;28;98527;-82
2023/12/29 00:27:14;;;;;;;6.70;1.60;;;;;;;;;;4997092;28;98546;-81
2023/12/29 00:29:41;;;;;;;6.13;1.50;;;;;;;;;;5009803;28;98791;-81
2023/12/29 00:32:07;;;;;;;8.25;1.40;;;;;;;;;;4997330;28;99588;-81
2023/12/29 00:34:34;;;;;;;7.18;1.60;;;;;;;;;;4995198;28;98434;-81
2023/12/29 00:37:01;;;;;;;6.30;1.60;;;;;;;;;;5010665;28;98482;-81
2023/12/29 00:39:38;;;;;;;7.32;1.42;;;;;;;;;;5009796;27;98843;-81
2023/12/29 00:42:06;;;;;;;5.03;1.30;;;;;;;;;;4978845;28;98332;-81
2023/12/29 00:44:33;;;;;;;6.10;1.30;;;;;;;;;;4979547;28;102835;-82
2023/12/29 00:47:00;;;;;;;8.25;1.60;;;;;;;;;;4975489;28;98575;-82
2023/12/29 00:49:26;;;;;;;6.05;1.40;;;;;;;;;;4977684;28;98892;-81
2023/12/29 00:51:53;;;;;;;9.07;1.50;;;;;;;;;;5009548;28;99144;-81
2023/12/29 00:54:20;;;;;;;9.60;1.63;;;;;;;;;;4981326;28;98375;-80
2023/12/29 00:56:50;;;;;;;7.45;1.45;;;;;;;;;;4994866;28;100290;-82
2023/12/29 00:59:18;;;;;;;6.00;1.20;;;;;;;;;;4993867;28;101465;-82
2023/12/29 01:01:45;;;;;;;10.32;1.50;;;;;;;;;;5008807;28;98327;-82
2023/12/29 01:04:12;;;;;;;6.85;1.40;;;;;;;;;;4998611;28;98426;-81
2023/12/29 01:06:39;;;;;;;5.22;1.40;;;;;;;;;;5002409;28;99440;-81
2023/12/29 01:09:08;;;;;;;5.55;1.20;;;;;;;;;;4998811;28;101418;-80
2023/12/29 01:11:34;;;;;;;5.40;1.27;;;;;;;;;;5006248;28;98756;-80
2023/12/29 01:14:01;;;;;;;6.60;1.30;;;;;;;;;;5031877;28;97764;-80
2023/12/29 01:16:27;;;;;;;5.55;1.40;;;;;;;;;;5003143;28;98212;-80
2023/12/29 01:18:54;;;;;;;6.47;1.30;;;;;;;;;;5011156;28;101775;-80
2023/12/29 01:21:21;;;;;;;5.68;1.38;;;;;;;;;;5003845;28;99233;-80
2023/12/29 01:23:48;;;;;;;7.93;1.42;;;;;;;;;;4984561;28;102152;-81
2023/12/29 01:26:15;;;;;;;8.00;1.42;;;;;;;;;;4995103;28;99091;-80
2023/12/29 01:28:41;;;;;;;7.30;1.50;;;;;;;;;;4983046;28;98189;-81
2023/12/29 01:31:08;;;;;;;4.90;1.25;;;;;;;;;;4978041;28;101994;-80
2023/12/29 01:33:35;;;;;;;5.07;1.25;;;;;;;;;;4998110;28;98171;-80
2023/12/29 01:36:02;;;;;;;7.50;1.30;;;;;;;;;;5013772;28;100595;-80
2023/12/29 01:38:40;;;;;;;6.05;1.30;;;;;;;;;;5004409;28;102419;-79
2023/12/29 01:41:07;;;;;;;7.18;1.30;;;;;;;;;;5011021;27;98193;-79
2023/12/29 01:43:33;;;;;;;6.25;1.30;;;;;;;;;;4998820;28;98857;-80
2023/12/29 01:46:00;;;;;;;5.40;1.30;;;;;;;;;;4996867;28;101807;-81
2023/12/29 01:48:26;;;;;;;4.47;1.27;;;;;;;;;;4980291;28;98123;-81
2023/12/29 01:50:54;;;;;;;6.18;1.40;;;;;;;;;;5002576;28;98445;-79
2023/12/29 01:53:21;;;;;;;;;;;;;;;;;;4998172;28;98167;-80
2023/12/29 01:55:52;;;;;;;7.50;1.52;;;;;;;;;;4999032;28;115479;-80
2023/12/29 01:58:19;;;;;;;6.25;1.10;;;;;;;;;;4996741;28;101487;-82
2023/12/29 02:00:46;;;;;;;5.82;1.40;;;;;;;;;;4998712;28;98609;-80
2023/12/29 02:03:12;;;;;;;5.90;1.40;;;;;;;;;;5000225;28;98442;-80
2023/12/29 02:05:39;;;;;;;3.83;1.23;;;;;;;;;;4990126;28;101692;-80
2023/12/29 02:08:07;;;;;;;5.07;1.42;;;;;;;;;;4984415;28;98682;-81
2023/12/29 02:10:35;;;;;;;4.60;1.33;;;;;;;;;;5016630;28;102763;-80
2023/12/29 02:13:02;;;;;;;6.30;1.48;;;;;;;;;;5022215;28;99840;-79
2023/12/29 02:15:28;;;;;;;7.15;1.60;;;;;;;;;;5006154;28;98438;-79
2023/12/29 02:18:01;;;;;;;4.93;1.20;;;;;;;;;;5012117;28;98870;-79
2023/12/29 02:20:29;;;;;;;7.85;1.40;;;;;;;;;;4993703;28;98622;-80
2023/12/29 02:22:55;;;;;;;5.43;1.35;;;;;;;;;;4993629;28;100930;-79
2023/12/29 02:25:22;;;;;;;5.30;1.30;;;;;;;;;;4997196;28;101184;-80
2023/12/29 02:27:49;;;;;;;7.43;1.50;;;;;;;;;;4998111;28;97647;-80
2023/12/29 02:30:35;;;;;;;5.93;1.30;;;;;;;;;;5011691;28;99951;-80
2023/12/29 02:33:04;;;;;;;7.07;1.40;;;;;;;;;;5015965;28;98876;-80
2023/12/29 02:35:33;;;;;;;8.27;1.20;;;;;;;;;;5019585;28;99034;-80
2023/12/29 02:38:00;;;;;;;4.70;1.30;;;;;;;;;;5017194;28;101648;-80
2023/12/29 02:40:27;;;;;;;5.20;1.23;;;;;;;;;;5017646;27;98190;-81
2023/12/29 02:42:54;;;;;;;7.05;1.38;;;;;;;;;;5017619;28;100900;-80
2023/12/29 02:45:21;;;;;;;5.47;1.30;;;;;;;;;;5006329;28;99079;-80
2023/12/29 02:47:48;;;;;;;7.32;1.30;;;;;;;;;;5012980;28;98269;-79
2023/12/29 02:50:15;;;;;;;7.00;1.50;;;;;;;;;;4998350;27;100713;-80
2023/12/29 02:52:41;;;;;;;4.28;1.30;;;;;;;;;;5030342;28;99265;-80
2023/12/29 02:55:08;;;;;;;4.78;1.30;;;;;;;;;;5001481;28;98457;-80
2023/12/29 02:57:36;;;;;;;9.25;1.50;;;;;;;;;;5016286;28;101154;-80
2023/12/29 03:00:03;;;;;;;5.35;1.20;;;;;;;;;;5001660;27;99052;-79
2023/12/29 03:02:30;;;;;;;5.55;1.20;;;;;;;;;;5029360;27;102067;-80
2023/12/29 03:04:57;;;;;;;6.55;1.50;;;;;;;;;;5004726;28;99539;-80
2023/12/29 03:07:23;;;;;;;6.18;1.40;;;;;;;;;;4996513;28;98116;-79
2023/12/29 03:09:50;;;;;;;5.78;1.40;;;;;;;;;;4976665;28;98738;-81
2023/12/29 03:12:17;;;;;;;5.43;1.23;;;;;;;;;;4997767;27;99310;-81
2023/12/29 03:14:44;;;;;;;4.75;1.13;;;;;;;;;;5020771;28;98366;-80
2023/12/29 03:17:11;;;;;;;5.72;1.40;;;;;;;;;;5020030;28;98525;-81
2023/12/29 03:19:37;;;;;;;6.55;1.50;;;;;;;;;;5000448;28;98376;-80
2023/12/29 03:22:05;;;;;;;9.73;1.48;;;;;;;;;;4970002;28;99118;-82
2023/12/29 03:24:31;;;;;;;6.40;1.30;;;;;;;;;;4997739;28;102108;-80
2023/12/29 03:26:58;;;;;;;6.53;1.40;;;;;;;;;;5016970;28;98646;-80
2023/12/29 03:29:24;;;;;;;5.93;1.30;;;;;;;;;;5016431;28;100827;-81
2023/12/29 03:31:52;;;;;;;5.35;1.20;;;;;;;;;;5017429;28;98789;-81
2023/12/29 03:34:19;;;;;;;6.85;1.30;;;;;;;;;;5015521;27;98657;-81
2023/12/29 03:36:47;;;;;;;6.05;1.42;;;;;;;;;;4999489;28;100103;-81
2023/12/29 03:39:14;;;;;;;5.68;1.40;;;;;;;;;;4992757;28;101381;-80
2023/12/29 03:41:40;;;;;;;7.03;1.38;;;;;;;;;;4980189;28;101113;-80
2023/12/29 03:44:07;;;;;;;5.15;1.35;;;;;;;;;;4996038;28;99692;-82
2023/12/29 03:46:33;;;;;;;6.50;1.52;;;;;;;;;;5012534;28;98317;-81
2023/12/29 03:49:00;;;;;;;6.53;1.58;;;;;;;;;;4995723;28;100905;-81
2023/12/29 03:51:27;;;;;;;4.38;1.25;;;;;;;;;;4996131;28;101112;-79
2023/12/29 03:53:53;;;;;;;7.10;1.50;;;;;;;;;;5011508;28;98579;-81
2023/12/29 03:56:20;;;;;;;6.15;1.40;;;;;;;;;;5016985;28;98425;-81
2023/12/29 03:58:47;;;;;;;6.07;1.40;;;;;;;;;;5015886;28;98889;-81
2023/12/29 04:01:14;;;;;;;6.38;1.25;;;;;;;;;;5019213;28;98502;-81
2023/12/29 04:03:41;;;;;;;7.70;1.40;;;;;;;;;;5017091;28;99161;-81
2023/12/29 04:06:08;;;;;;;9.18;1.40;;;;;;;;;;5015504;28;97688;-81
2023/12/29 04:08:35;;;;;;;7.68;1.50;;;;;;;;;;5016098;28;100190;-81
2023/12/29 04:11:02;;;;;;;5.90;1.50;;;;;;;;;;5016606;28;105995;-81
2023/12/29 04:13:29;;;;;;;7.55;1.27;;;;;;;;;;5015568;28;99021;-80
2023/12/29 04:15:55;;;;;;;6.95;1.42;;;;;;;;;;5017368;28;99221;-80
2023/12/29 04:18:23;;;;;;;5.45;1.40;;;;;;;;;;5014787;28;98955;-81
2023/12/29 04:20:50;;;;;;;6.03;1.30;;;;;;;;;;5016866;28;98524;-80
2023/12/29 04:23:16;;;;;;;7.85;1.50;;;;;;;;;;5018789;28;98684;-79
2023/12/29 04:25:43;;;;;;;6.18;1.23;;;;;;;;;;4998695;28;98248;-81
2023/12/29 04:28:09;;;;;;;9.35;1.65;;;;;;;;;;5015543;28;98809;-81
2023/12/29 04:30:36;;;;;;;6.95;1.23;;;;;;;;;;5014441;28;98146;-80
2023/12/29 04:33:03;;;;;;;5.15;1.20;;;;;;;;;;5015766;27;98180;-81
2023/12/29 04:35:30;;;;;;;7.97;1.65;;;;;;;;;;5015131;27;98592;-80
2023/12/29 04:37:57;;;;;;;6.45;1.20;;;;;;;;;;5014554;28;101510;-80
2023/12/29 04:40:24;;;;;;;6.97;1.60;;;;;;;;;;5014295;27;98618;-80
2023/12/29 04:42:50;;;;;;;6.70;1.60;;;;;;;;;;4998497;28;101253;-81
2023/12/29 04:45:17;;;;;;;8.68;1.52;;;;;;;;;;5019010;27;99212;-80
2023/12/29 04:47:43;;;;;;;6.10;1.30;;;;;;;;;;5016852;28;98586;-80
2023/12/29 04:50:10;;;;;;;6.47;1.80;;;;;;;;;;5013881;28;98705;-81
2023/12/29 04:52:37;;;;;;;6.03;1.30;;;;;;;;;;5015400;28;98198;-80
2023/12/29 04:55:03;;;;;;;6.78;1.60;;;;;;;;;;4995223;28;101088;-81
2023/12/29 04:57:30;;;;;;;9.13;1.63;;;;;;;;;;5003331;28;98794;-81
2023/12/29 04:59:57;;;;;;;11.18;1.40;;;;;;;;;;5011299;28;105380;-80
2023/12/29 05:02:23;;;;;;;7.80;1.50;;;;;;;;;;4995661;28;98974;-80
2023/12/29 05:04:50;;;;;;;5.55;1.40;;;;;;;;;;5004154;28;99933;-81
2023/12/29 05:07:16;;;;;;;7.88;1.50;;;;;;;;;;5005341;28;101072;-80
2023/12/29 05:09:43;;;;;;;6.65;1.30;;;;;;;;;;4996090;28;98740;-80
2023/12/29 05:12:10;;;;;;;9.15;1.52;;;;;;;;;;5011241;28;98434;-81
2023/12/29 05:14:37;;;;;;;5.03;1.38;;;;;;;;;;5010580;28;102285;-80
2023/12/29 05:17:03;;;;;;;10.48;1.60;;;;;;;;;;4995601;28;98794;-80
2023/12/29 05:19:30;;;;;;;10.52;1.48;;;;;;;;;;4996009;28;98204;-80
2023/12/29 05:21:56;;;;;;;8.13;1.60;;;;;;;;;;4994979;28;98257;-82
2023/12/29 05:24:23;;;;;;;7.35;1.40;;;;;;;;;;4995248;28;98829;-81
2023/12/29 05:26:49;;;;;;;6.75;1.40;;;;;;;;;;4999018;28;99178;-81
2023/12/29 05:29:16;;;;;;;9.45;1.60;;;;;;;;;;4993920;28;101082;-80
2023/12/29 05:31:42;;;;;;;7.18;1.55;;;;;;;;;;4996504;28;98718;-79
2023/12/29 05:34:09;;;;;;;9.32;1.50;;;;;;;;;;4995815;28;98784;-81
2023/12/29 05:36:36;;;;;;;7.75;1.45;;;;;;;;;;4994688;28;99147;-80
2023/12/29 05:39:03;;;;;;;8.00;1.38;;;;;;;;;;4994037;28;98431;-80
2023/12/29 05:41:30;;;;;;;9.32;1.60;;;;;;;;;;4984676;28;98407;-79
2023/12/29 05:43:57;;;;;;;4.35;1.23;;;;;;;;;;4973272;28;100580;-80
2023/12/29 05:46:24;;;;;;;6.75;1.52;;;;;;;;;;5007183;28;98636;-81
2023/12/29 05:48:52;;;;;;;7.63;1.60;;;;;;;;;;5017710;28;99504;-81
2023/12/29 05:51:19;;;;;;;9.05;1.50;;;;;;;;;;4986825;28;98881;-81
2023/12/29 05:53:45;;;;;;;6.03;1.30;;;;;;;;;;4995994;28;99189;-81
2023/12/29 05:56:13;;;;;;;6.65;1.40;;;;;;;;;;5011695;28;98782;-81
2023/12/29 05:58:43;;;;;;;8.43;1.60;;;;;;;;;;5019436;28;98376;-81
2023/12/29 06:01:09;;;;;;;12.48;1.73;;;;;;;;;;5008586;28;100920;-80
2023/12/29 06:03:36;;;;;;;7.65;1.60;;;;;;;;;;4997269;28;101504;-80
2023/12/29 06:06:03;;;;;;;8.18;1.42;;;;;;;;;;4997483;28;98373;-81
2023/12/29 06:08:30;;;;;;;6.60;1.35;;;;;;;;;;4999365;28;98799;-80
2023/12/29 06:10:56;;;;;;;7.63;1.65;;;;;;;;;;5003632;28;99763;-81
2023/12/29 06:13:23;;;;;;;8.50;1.63;;;;;;;;;;4998555;28;101207;-81
2023/12/29 06:15:50;;;;;;;7.53;1.55;;;;;;;;;;4997826;28;100004;-81
2023/12/29 06:18:16;;;;;;;9.15;1.55;;;;;;;;;;4996351;28;98424;-81
2023/12/29 06:20:43;;;;;;;6.38;1.50;;;;;;;;;;4997174;28;98629;-80
2023/12/29 06:23:10;;;;;;;7.72;1.48;;;;;;;;;;4997743;28;99592;-81
2023/12/29 06:25:39;;;;;;;8.27;1.55;;;;;;;;;;4997628;28;106467;-81
2023/12/29 06:28:06;;;;;;;8.60;1.20;;;;;;;;;;4998655;28;99067;-82
2023/12/29 06:30:33;;;;;;;6.38;1.40;;;;;;;;;;5013886;27;102956;-81
2023/12/29 06:33:00;;;;;;;7.40;1.70;;;;;;;;;;4993490;28;97992;-81
2023/12/29 06:35:27;;;;;;;6.70;1.42;;;;;;;;;;4989477;28;99554;-81
2023/12/29 06:37:54;;;;;;;6.90;1.50;;;;;;;;;;4993513;28;98084;-82
2023/12/29 06:40:20;;;;;;;9.23;1.58;;;;;;;;;;4985494;28;99081;-82
2023/12/29 06:42:47;;;;;;;6.40;1.52;;;;;;;;;;4991470;28;100838;-81
2023/12/29 06:45:14;;;;;;;9.75;1.60;;;;;;;;;;4998304;28;98234;-81
2023/12/29 06:47:40;;;;;;;9.07;1.73;;;;;;;;;;4980163;28;101272;-80
2023/12/29 06:50:12;;;;;;;7.93;1.45;;;;;;;;;;4997666;28;98454;-82
2023/12/29 06:52:39;;;;;;;5.65;1.48;;;;;;;;;;4998840;28;98415;-81
2023/12/29 06:55:06;;;;;;;6.45;1.55;;;;;;;;;;4999889;28;101402;-81
2023/12/29 06:57:32;;;;;;;6.90;1.42;;;;;;;;;;4978264;28;97476;-81
2023/12/29 06:59:59;;;;;;;8.13;1.55;;;;;;;;;;4992326;28;100413;-82
2023/12/29 07:02:26;;;;;;;6.55;1.42;;;;;;;;;;4994024;28;98705;-81
2023/12/29 07:04:52;;;;;;;6.05;1.42;;;;;;;;;;5011778;28;99197;-80
2023/12/29 07:07:19;;;;;;;6.30;1.50;;;;;;;;;;4997577;28;100975;-81
2023/12/29 07:09:45;;;;;;;6.55;1.55;;;;;;;;;;5011480;28;98731;-82
2023/12/29 07:12:12;;;;;;;7.57;1.50;;;;;;;;;;5016326;28;98243;-82
2023/12/29 07:14:40;;;;;;;9.40;1.42;;;;;;;;;;5019192;28;100870;-79
2023/12/29 07:17:07;;;;;;;5.80;1.30;;;;;;;;;;5017763;28;103002;-81
2023/12/29 07:19:36;;;;;;;6.63;1.30;;;;;;;;;;5017853;27;99362;-81
2023/12/29 07:22:07;;;;;;;8.23;1.40;;;;;;;;;;5018015;28;98019;-80
2023/12/29 07:24:35;;;;;;;5.28;1.20;;;;;;;;;;5013484;27;98366;-81
2023/12/29 07:27:03;;;;;;;8.32;1.50;;;;;;;;;;4996642;28;98643;-80
2023/12/29 07:29:30;;;;;;;7.10;1.30;;;;;;;;;;4997196;28;99537;-80
2023/12/29 07:31:56;;;;;;;5.20;1.27;;;;;;;;;;4992852;28;98782;-80
2023/12/29 07:34:23;;;;;;;3.85;1.10;;;;;;;;;;4995446;28;98393;-80
2023/12/29 07:36:50;;;;;;;5.65;1.30;;;;;;;;;;4999678;28;98857;-81
2023/12/29 07:39:17;;;;;;;7.85;1.30;;;;;;;;;;4988808;28;98555;-81
2023/12/29 07:41:44;;;;;;;6.35;1.30;;;;;;;;;;4976148;28;101009;-81
2023/12/29 07:44:11;;;;;;;6.50;1.50;;;;;;;;;;4977159;28;98996;-81
2023/12/29 07:46:40;;;;;;;6.05;1.30;;;;;;;;;;4976908;28;101050;-83
2023/12/29 07:49:07;;;;;;;5.03;1.20;;;;;;;;;;4979653;28;98845;-81
2023/12/29 07:51:34;;;;;;;6.95;1.40;;;;;;;;;;5008129;28;98419;-80
2023/12/29 07:54:01;;;;;;;6.57;1.60;;;;;;;;;;5000434;28;98848;-81
2023/12/29 07:56:28;;;;;;;5.85;1.13;;;;;;;;;;4996848;28;99453;-80
2023/12/29 07:58:54;;;;;;;5.30;1.33;;;;;;;;;;4999238;28;98785;-80
2023/12/29 08:01:21;;;;;;;5.85;1.38;;;;;;;;;;4995593;28;101583;-80
2023/12/29 08:03:48;;;;;;;3.47;1.10;;;;;;;;;;4976675;28;98285;-81
2023/12/29 08:06:15;;;;;;;6.25;1.30;;;;;;;;;;5014485;27;100861;-81
2023/12/29 08:08:42;;;;;;;6.28;1.30;;;;;;;;;;5017581;28;105143;-81
2023/12/29 08:11:16;;;;;;;5.53;1.13;;;;;;;;;;5017566;27;97453;-81
2023/12/29 08:13:43;;;;;;;4.70;1.40;;;;;;;;;;4999854;28;100124;-81
2023/12/29 08:16:10;;;;;;;6.80;1.42;;;;;;;;;;5015924;28;98883;-81
2023/12/29 08:18:37;;;;;;;4.78;1.30;;;;;;;;;;5014367;28;99316;-81
2023/12/29 08:21:04;;;;;;;6.63;1.40;;;;;;;;;;5013850;28;100023;-80
2023/12/29 08:23:30;;;;;;;5.43;1.20;;;;;;;;;;5015692;28;98429;-79
2023/12/29 08:25:58;;;;;;;5.57;1.23;;;;;;;;;;4983909;28;101208;-79
2023/12/29 08:28:24;;;;;;;9.05;1.20;;;;;;;;;;5012102;27;98822;-81
2023/12/29 08:30:51;;;;;;;6.30;1.15;;;;;;;;;;5028117;28;98262;-79
2023/12/29 08:33:18;;;;;;;3.58;1.00;;;;;;;;;;4994918;28;101667;-79
2023/12/29 08:35:45;;;;;;;6.05;1.25;;;;;;;;;;5000992;28;98479;-79
2023/12/29 08:38:12;;;;;;;;;;;;;;;;;;4993735;28;101781;-79
2023/12/29 08:40:38;;;;;;;4.82;1.02;;;;;;;;;;4978078;28;98288;-79
2023/12/29 08:43:05;;;;;;;3.15;0.98;;;;;;;;;;4979231;28;100230;-80
2023/12/29 08:45:31;;;;;;;6.18;1.23;;;;;;;;;;4976349;28;99447;-81
2023/12/29 08:47:58;;;;;;;4.75;1.20;;;;;;;;;;4981940;28;102020;-80
2023/12/29 08:50:25;;;;;;;;;;;;;;;;;;5013413;28;98300;-80
2023/12/29 08:52:52;;;;;;;3.13;1.02;;;;;;;;;;5018112;28;103752;-79
2023/12/29 08:55:18;;;;;;;5.35;1.10;;;;;;;;;;5015840;27;98730;-80
2023/12/29 08:57:45;;;;;;;4.75;1.10;;;;;;;;;;5003493;28;98277;-80
2023/12/29 09:00:12;;;;;;;3.25;1.13;;;;;;;;;;4996125;28;98518;-80
2023/12/29 09:02:39;;;;;;;5.28;1.13;;;;;;;;;;4991289;28;98949;-81
2023/12/29 09:05:07;;;;;;;4.32;1.10;;;;;;;;;;4985988;28;98531;-81
2023/12/29 09:07:33;;;;;;;3.30;1.10;;;;;;;;;;4986473;28;99470;-81
2023/12/29 09:10:02;;;;;;;3.28;1.10;;;;;;;;;;4991932;28;98811;-81
2023/12/29 09:12:29;;;;;;;4.85;1.20;;;;;;;;;;4994235;28;100415;-81
2023/12/29 09:14:55;;;;;;;4.45;1.10;;;;;;;;;;5011344;28;98525;-82
2023/12/29 09:17:22;;;;;;;3.75;0.90;;;;;;;;;;5005830;28;98948;-82
2023/12/29 09:19:50;;;;;;;3.95;1.00;;;;;;;;;;5015732;28;98507;-81
2023/12/29 09:22:25;;;;;;;4.38;1.05;;;;;;;;;;5013386;27;101061;-80
2023/12/29 09:24:53;;;;;;;4.82;1.20;;;;;;;;;;5014180;28;98307;-80
2023/12/29 09:27:20;;;;;;;3.83;1.00;;;;;;;;;;5011430;28;99475;-79
2023/12/29 09:29:46;;;;;;;4.03;1.00;;;;;;;;;;5014451;28;98657;-79
2023/12/29 09:32:13;;;;;;;3.28;0.90;;;;;;;;;;5017669;28;99096;-80
2023/12/29 09:34:40;;;;;;;4.07;1.00;;;;;;;;;;5016951;28;101837;-81
2023/12/29 09:37:06;;;;;;;4.40;0.75;;;;;;;;;;5018287;27;98398;-83
2023/12/29 09:39:33;;;;;;;4.68;1.13;;;;;;;;;;5016551;28;100828;-80
2023/12/29 09:42:00;;;;;;;5.05;1.10;;;;;;;;;;5014853;28;98930;-82
2023/12/29 09:44:30;;;;;;;4.20;1.00;;;;;;;;;;5000596;28;99318;-83
2023/12/29 09:47:01;;;;;;;4.20;1.00;;;;;;;;;;5017198;28;98490;-80
2023/12/29 09:49:37;;;;;;;4.65;1.00;;;;;;;;;;5018958;28;97560;-80
2023/12/29 09:52:05;;;;;;;4.13;1.00;;;;;;;;;;5018074;28;98214;-81
2023/12/29 09:54:32;;;;;;;3.90;0.90;;;;;;;;;;5012702;28;98866;-81
2023/12/29 09:56:59;;;;;;;4.43;0.90;;;;;;;;;;5008041;28;99195;-82
2023/12/29 09:59:26;;;;;;;3.60;0.90;;;;;;;;;;5015371;28;99190;-82
2023/12/29 10:01:53;;;;;;;3.58;0.88;;;;;;;;;;5011267;28;98864;-82
2023/12/29 10:04:20;;;;;;;2.22;0.90;;;;;;;;;;5003903;28;98391;-82
2023/12/29 10:06:48;;;;;;;2.03;0.80;;;;;;;;;;5017033;28;99009;-81
2023/12/29 10:09:16;;;;;;;6.13;1.00;;;;;;;;;;5022175;27;98996;-81
2023/12/29 10:11:45;;;;;;;3.45;1.00;;;;;;;;;;5020217;28;98702;-83
2023/12/29 10:14:26;;;;;;;2.80;0.90;;;;;;;;;;5018639;28;98698;-83
2023/12/29 10:17:01;;;;;;;3.22;1.00;;;;;;;;;;5018689;28;98463;-85
2023/12/29 10:19:40;;;;;;;4.00;1.13;;;;;;;;;;5018376;28;100818;-83
2023/12/29 10:22:33;;;;;;;3.55;0.95;;;;;;;;;;5019319;28;100032;-82
2023/12/29 10:25:03;;;;;;;3.17;0.80;;;;;;;;;;5035030;28;98508;-83
2023/12/29 10:27:30;;;;;;;3.05;1.00;;;;;;;;;;4986413;28;100394;-84
2023/12/29 10:29:56;;;;;;;2.88;0.95;;;;;;;;;;4979557;28;98761;-85
2023/12/29 10:32:23;;;;;;;6.78;1.20;;;;;;;;;;4992092;28;98495;-84
2023/12/29 10:34:50;;;;;;;1.65;0.70;;;;;;;;;;5017205;28;101061;-85
2023/12/29 10:37:22;;;;;;;4.15;0.95;;;;;;;;;;4991851;28;98328;-85
2023/12/29 10:39:55;;;;;;;2.67;0.90;;;;;;;;;;4982576;28;100749;-85
2023/12/29 10:42:22;;;;;;;3.47;1.00;;;;;;;;;;4996413;28;100925;-85
2023/12/29 10:45:04;;;;;;;4.45;1.50;;;;;;;;;;5019278;28;98180;-84
2023/12/29 10:47:30;;;;;;;4.97;1.20;;;;;;;;;;5006646;28;100631;-85
2023/12/29 10:50:01;;;;;;;3.35;1.15;;;;;;;;;;4996245;28;100561;-85
2023/12/29 10:52:28;;;;;;;3.78;1.10;;;;;;;;;;4998261;27;98728;-83
2023/12/29 10:55:05;;;;;;;4.28;1.00;;;;;;;;;;5001437;28;98765;-85
2023/12/29 10:57:32;;;;;;;2.72;1.02;;;;;;;;;;5010087;28;99563;-84
2023/12/29 11:00:03;;;;;;;2.95;0.85;;;;;;;;;;5002622;28;99233;-84
2023/12/29 11:02:30;;;;;;;4.38;1.10;;;;;;;;;;5012555;28;99287;-84
2023/12/29 11:05:04;;;;;;;2.88;1.08;;;;;;;;;;4991799;28;97660;-84
2023/12/29 11:07:31;;;;;;;4.50;1.10;;;;;;;;;;4989424;28;100721;-84
2023/12/29 11:10:00;;;;;;;3.60;0.90;;;;;;;;;;5011727;28;98823;-83
2023/12/29 11:12:26;;;;;;;3.47;1.20;;;;;;;;;;5017849;28;99144;-83
2023/12/29 11:14:53;;;;;;;2.65;0.90;;;;;;;;;;5020769;28;99457;-84
2023/12/29 11:17:20;;;;;;;3.78;1.05;;;;;;;;;;4996129;28;99095;-83
2023/12/29 11:19:48;;;;;;;3.95;1.10;;;;;;;;;;4993959;28;101093;-83
2023/12/29 11:22:16;;;;;;;4.15;0.90;;;;;;;;;;4992662;28;99502;-84
2023/12/29 11:24:45;;;;;;;4.50;1.00;;;;;;;;;;5002775;28;98234;-84
2023/12/29 11:27:13;;;;;;;3.30;1.02;;;;;;;;;;5032799;27;98780;-83
2023/12/29 11:29:41;;;;;;;3.97;1.17;;;;;;;;;;5016148;28;100184;-84
2023/12/29 11:32:12;;;;;;;4.72;0.90;;;;;;;;;;5015385;28;98254;-84
2023/12/29 11:34:44;;;;;;;3.03;0.80;;;;;;;;;;5016527;28;101598;-82
2023/12/29 11:37:31;;;;;;;2.80;1.00;;;;;;;;;;5007558;28;99610;-84
2023/12/29 11:40:01;;;;;;;3.55;1.00;;;;;;;;;;4976227;28;99306;-83
2023/12/29 11:42:31;;;;;;;3.83;1.00;;;;;;;;;;4978070;28;99050;-83
2023/12/29 11:44:58;;;;;;;3.72;0.93;;;;;;;;;;4982464;28;98435;-84
2023/12/29 11:47:34;;;;;;;4.97;1.00;;;;;;;;;;4991738;28;98738;-83
2023/12/29 11:50:01;;;;;;;3.78;0.80;;;;;;;;;;4959139;28;100968;-84
2023/12/29 11:52:35;;;;;;;4.65;1.15;;;;;;;;;;4995546;28;99600;-84
2023/12/29 11:55:11;;;;;;;5.95;1.23;;;;;;;;;;4995998;28;101192;-84
2023/12/29 11:57:40;;;;;;;2.67;1.00;;;;;;;;;;4996096;28;101314;-85
2023/12/29 12:00:07;;;;;;;3.05;1.00;;;;;;;;;;4999896;28;100918;-84
2023/12/29 12:02:37;;;;;;;5.07;1.00;;;;;;;;;;5021827;28;103675;-84
2023/12/29 12:05:04;;;;;;;;;;;;;;;;;;4989814;28;98226;-85
2023/12/29 12:07:35;;;;;;;7.07;1.20;;;;;;;;;;5007592;28;98318;-86
2023/12/29 12:10:21;;;;;;;3.65;1.15;;;;;;;;;;4981869;28;101092;-86
2023/12/29 12:12:51;;;;;;;;;;;;;;;;;;4993738;28;99291;-85
2023/12/29 12:15:28;;;;;;;6.55;1.05;;;;;;;;;;4989976;28;109683;-85
2023/12/29 12:17:56;;;;;;;3.95;0.93;;;;;;;;;;4982942;28;102093;-83
2023/12/29 12:20:23;;;;;;;4.50;0.95;;;;;;;;;;5024751;27;97676;-84
2023/12/29 12:22:57;;;;;;;5.85;1.23;;;;;;;;;;5005811;28;100243;-84
2023/12/29 12:25:26;;;;;;;4.75;0.98;;;;;;;;;;5008877;28;98424;-84
2023/12/29 12:27:52;;;;;;;4.47;0.95;;;;;;;;;;5012839;28;100779;-83
2023/12/29 12:30:20;;;;;;;5.45;1.10;;;;;;;;;;5001400;28;99114;-84
2023/12/29 12:32:56;;;;;;;5.43;1.10;;;;;;;;;;5015169;27;98597;-84
2023/12/29 12:35:26;;;;;;;4.82;1.02;;;;;;;;;;5006983;28;100581;-86
2023/12/29 12:38:12;;;;;;;4.78;1.10;;;;;;;;;;5016694;28;100812;-85
2023/12/29 12:40:39;;;;;;;4.13;1.00;;;;;;;;;;4996598;28;98182;-85
2023/12/29 12:43:06;;;;;;;6.85;1.30;;;;;;;;;;4980089;28;100504;-86
2023/12/29 12:45:34;;;;;;;6.00;1.08;;;;;;;;;;5000010;28;99653;-84
2023/12/29 12:48:10;;;;;;;5.22;1.10;;;;;;;;;;4984638;28;98592;-86
2023/12/29 12:50:37;;;;;;;3.67;0.88;;;;;;;;;;4975999;28;103323;-85
2023/12/29 12:53:09;;;;;;;4.80;1.20;;;;;;;;;;4958156;28;99291;-84
2023/12/29 12:55:36;;;;;;;3.85;0.90;;;;;;;;;;4971458;28;102437;-85
2023/12/29 12:58:03;;;;;;;5.45;1.17;;;;;;;;;;4996036;28;99268;-85
2023/12/29 13:00:30;;;;;;;6.95;1.30;;;;;;;;;;4996432;28;100289;-84
2023/12/29 13:02:57;;;;;;;6.78;1.20;;;;;;;;;;5002905;28;101273;-85
2023/12/29 13:05:24;;;;;;;5.85;1.10;;;;;;;;;;5002361;28;98849;-84
2023/12/29 13:07:55;;;;;;;5.63;1.38;;;;;;;;;;4999826;28;98829;-87
2023/12/29 13:10:22;;;;;;;7.43;1.33;;;;;;;;;;4979204;28;101247;-84
2023/12/29 13:12:52;;;;;;;4.28;1.00;;;;;;;;;;4996630;28;98324;-84
2023/12/29 13:15:19;;;;;;;3.83;1.05;;;;;;;;;;4997204;28;98434;-85
2023/12/29 13:17:52;;;;;;;5.22;1.40;;;;;;;;;;4994895;28;102472;-83
2023/12/29 13:20:19;;;;;;;;;;;;;;;;;;4996898;28;98546;-84
2023/12/29 13:22:47;;;;;;;4.78;1.10;;;;;;;;;;4977450;28;110828;-85
2023/12/29 13:25:18;;;;;;;5.13;1.30;;;;;;;;;;4985101;28;100828;-85
2023/12/29 13:27:45;;;;;;;5.30;1.20;;;;;;;;;;5016080;28;98336;-85
2023/12/29 13:30:14;;;;;;;4.55;1.23;;;;;;;;;;4989669;28;101560;-84
2023/12/29 13:32:42;;;;;;;5.03;1.05;;;;;;;;;;5012066;28;98405;-85
2023/12/29 13:35:08;;;;;;;5.20;1.40;;;;;;;;;;5005374;28;98709;-85
2023/12/29 13:37:39;;;;;;;4.18;1.00;;;;;;;;;;5016318;28;100805;-85
2023/12/29 13:40:21;;;;;;;6.57;1.20;;;;;;;;;;5001367;27;98132;-84
2023/12/29 13:42:50;;;;;;;5.22;1.02;;;;;;;;;;4959707;28;108164;-84
2023/12/29 13:45:18;;;;;;;3.38;1.00;;;;;;;;;;5004717;28;98817;-83
2023/12/29 13:47:46;;;;;;;3.97;1.15;;;;;;;;;;5002574;28;98595;-84
2023/12/29 13:50:12;;;;;;;4.78;1.38;;;;;;;;;;4998732;28;98455;-84
2023/12/29 13:52:40;;;;;;;4.10;1.15;;;;;;;;;;4996143;28;98335;-85
2023/12/29 13:55:07;;;;;;;5.63;1.38;;;;;;;;;;4996440;28;100845;-85
2023/12/29 13:57:36;;;;;;;4.18;1.13;;;;;;;;;;4991008;28;98937;-85
2023/12/29 14:00:20;;;;;;;5.82;1.20;;;;;;;;;;4992717;28;97535;-84
2023/12/29 14:02:57;;;;;;;5.85;1.30;;;;;;;;;;5003195;28;103819;-83
2023/12/29 14:05:24;;;;;;;6.93;1.60;;;;;;;;;;4998412;28;98775;-83
2023/12/29 14:07:53;;;;;;;7.22;1.50;;;;;;;;;;5015587;28;99260;-85
2023/12/29 14:10:20;;;;;;;4.93;1.20;;;;;;;;;;5015454;28;99276;-84
2023/12/29 14:12:48;;;;;;;5.28;1.20;;;;;;;;;;5001957;28;101238;-84
2023/12/29 14:15:15;;;;;;;5.40;1.10;;;;;;;;;;4999322;28;101196;-84
2023/12/29 14:17:42;;;;;;;5.03;1.33;;;;;;;;;;5003348;28;99421;-84
2023/12/29 14:20:09;;;;;;;5.53;1.10;;;;;;;;;;4999586;28;98810;-84
2023/12/29 14:22:36;;;;;;;5.50;1.17;;;;;;;;;;4982048;28;101142;-85
2023/12/29 14:25:04;;;;;;;3.72;1.00;;;;;;;;;;4982345;28;101005;-84
2023/12/29 14:27:31;;;;;;;5.32;1.30;;;;;;;;;;4993765;28;98758;-84
2023/12/29 14:29:58;;;;;;;5.90;1.20;;;;;;;;;;5003722;28;101438;-84
2023/12/29 14:32:28;;;;;;;4.75;1.20;;;;;;;;;;4980647;28;101649;-83
2023/12/29 14:34:56;;;;;;;3.90;1.25;;;;;;;;;;5001748;28;98425;-84
2023/12/29 14:37:23;;;;;;;5.97;1.33;;;;;;;;;;4998533;28;98972;-83
2023/12/29 14:39:50;;;;;;;4.15;1.30;;;;;;;;;;5006143;28;98604;-85
2023/12/29 14:42:17;;;;;;;4.22;1.17;;;;;;;;;;4998884;27;101036;-85
2023/12/29 14:44:47;;;;;;;6.32;1.40;;;;;;;;;;5004689;28;101010;-85